createdAt,value
2023-05-10T00:01:49.133Z,96967.78
2023-05-10T00:06:50.401Z,96965.53
2023-05-10T00:11:51.674Z,96961.09
2023-05-10T00:16:53.050Z,96964.19
2023-05-10T00:21:54.440Z,96955.53
2023-05-10T00:26:55.693Z,96956.47
2023-05-10T00:31:57.386Z,96960.44
2023-05-10T00:36:58.904Z,96959.81
2023-05-10T00:42:01.136Z,96958.28
2023-05-10T00:47:02.379Z,96958.63
2023-05-10T00:52:04.077Z,96960.31
2023-05-10T00:57:05.370Z,96955.16
2023-05-10T01:02:06.880Z,96951.22
2023-05-10T01:07:08.114Z,96957.56
2023-05-10T01:12:09.426Z,96960.06
2023-05-10T01:17:10.844Z,96968.78
2023-05-10T01:22:12.133Z,96972.00
2023-05-10T01:27:13.372Z,96964.63
2023-05-10T01:32:14.687Z,96965.34
2023-05-10T01:37:16.140Z,96962.50
2023-05-10T01:42:17.488Z,96960.09
2023-05-10T01:47:18.784Z,96954.53
2023-05-10T01:52:23.158Z,96960.13
2023-05-10T01:57:24.404Z,96956.53
2023-05-10T02:02:25.686Z,96951.88
2023-05-10T02:07:27.021Z,96945.91
2023-05-10T02:12:28.264Z,96961.38
2023-05-10T02:17:29.715Z,96959.09
2023-05-10T02:22:31.033Z,96967.34
2023-05-10T02:27:32.294Z,96961.72
2023-05-10T02:32:33.517Z,96963.06
2023-05-10T02:37:34.749Z,96978.31
2023-05-10T02:42:36.047Z,96983.19
2023-05-10T02:47:37.408Z,96981.53
2023-05-10T02:52:38.683Z,96970.72
2023-05-10T02:57:39.960Z,96984.78
2023-05-10T03:02:41.513Z,96988.94
2023-05-10T03:07:42.909Z,96999.38
2023-05-10T03:12:44.174Z,97006.16
2023-05-10T03:17:45.721Z,97016.28
2023-05-10T03:22:47.220Z,97029.28
2023-05-10T03:27:48.515Z,97028.28
2023-05-10T03:32:49.822Z,97039.53
2023-05-10T03:37:51.111Z,97048.34
2023-05-10T03:42:52.348Z,97060.22
2023-05-10T03:47:53.870Z,97066.34
2023-05-10T03:52:55.199Z,97068.38
2023-05-10T03:57:56.525Z,97069.84
2023-05-10T04:02:57.909Z,97072.41
2023-05-10T04:07:59.256Z,97080.03
2023-05-10T04:13:00.575Z,97078.28
2023-05-10T04:18:02.240Z,97079.78
2023-05-10T04:23:04.048Z,97085.97
2023-05-10T04:28:05.641Z,97075.97
2023-05-10T04:33:06.964Z,97080.56
2023-05-10T04:38:08.337Z,97089.69
2023-05-10T04:43:09.627Z,97085.00
2023-05-10T04:48:10.859Z,97090.31
2023-05-10T04:53:13.167Z,97086.47
2023-05-10T04:58:15.844Z,97098.78
2023-05-10T05:03:17.196Z,97100.06
2023-05-10T05:08:18.638Z,97107.28
2023-05-10T05:13:20.070Z,97122.56
2023-05-10T05:18:21.476Z,97137.03
2023-05-10T05:23:25.699Z,97141.03
2023-05-10T05:28:27.104Z,97139.25
2023-05-10T05:33:28.562Z,97167.16
2023-05-10T05:38:29.827Z,97162.44
2023-05-10T05:43:31.214Z,97164.69
2023-05-10T05:48:32.594Z,97168.22
2023-05-10T05:53:33.850Z,97164.97
2023-05-10T05:58:35.107Z,97171.44
2023-05-10T06:03:36.466Z,97168.19
2023-05-10T06:08:37.732Z,97176.19
2023-05-10T06:13:39.171Z,97178.09
2023-05-10T06:18:40.529Z,97181.84
2023-05-10T06:23:41.818Z,97184.75
2023-05-10T06:28:43.145Z,97184.84
2023-05-10T06:33:44.485Z,97186.44
2023-05-10T06:38:45.770Z,97189.97
2023-05-10T06:43:47.095Z,97199.78
2023-05-10T06:48:48.348Z,97198.63
2023-05-10T06:53:49.710Z,97204.09
2023-05-10T06:58:51.113Z,97208.84
2023-05-10T07:03:52.455Z,97211.31
2023-05-10T07:08:53.742Z,97226.44
2023-05-10T07:13:55.063Z,97216.75
2023-05-10T07:18:56.447Z,97218.16
2023-05-10T07:23:57.746Z,97228.56
2023-05-10T07:28:58.976Z,97232.13
2023-05-10T07:34:00.254Z,97241.00
2023-05-10T07:39:01.555Z,97241.34
2023-05-10T07:44:02.875Z,97254.78
2023-05-10T07:49:04.151Z,97253.41
2023-05-10T07:54:05.480Z,97247.69
2023-05-10T07:59:08.144Z,97249.50
2023-05-10T08:04:10.654Z,97255.63
2023-05-10T08:09:11.948Z,97256.44
2023-05-10T08:14:13.216Z,97256.47
2023-05-10T08:19:14.543Z,97260.81
2023-05-10T08:24:15.947Z,97260.88
2023-05-10T08:29:17.296Z,97261.19
2023-05-10T08:34:18.544Z,97266.22
2023-05-10T08:39:29.862Z,97252.06
2023-05-10T08:44:31.927Z,97270.63
2023-05-10T08:49:33.743Z,97262.75
2023-05-10T08:54:35.280Z,97265.97
2023-05-10T08:59:36.633Z,97280.41
2023-05-10T09:04:38.069Z,97282.56
2023-05-10T09:09:39.448Z,97283.09
2023-05-10T09:14:41.238Z,97290.56
2023-05-10T09:19:42.665Z,97290.38
2023-05-10T09:24:46.166Z,97291.88
2023-05-10T09:29:47.434Z,97291.09
2023-05-10T09:34:48.812Z,97288.59
2023-05-10T09:39:50.111Z,97283.75
2023-05-10T09:44:51.404Z,97282.44
2023-05-10T09:49:53.225Z,97266.19
2023-05-10T09:54:54.838Z,97266.88
2023-05-10T09:59:56.276Z,97271.22
2023-05-10T10:04:57.707Z,97264.19
2023-05-10T10:09:58.959Z,97261.78
2023-05-10T10:15:00.211Z,97251.94
2023-05-10T10:20:01.537Z,97260.78
2023-05-10T10:25:02.865Z,97260.16
2023-05-10T10:30:04.344Z,97234.97
2023-05-10T10:35:05.579Z,97215.31
2023-05-10T10:40:06.839Z,97203.47
2023-05-10T10:45:10.017Z,97187.22
2023-05-10T10:50:19.518Z,97180.34
2023-05-10T10:55:23.250Z,97182.53
2023-05-10T11:00:24.617Z,97183.00
2023-05-10T11:05:26.129Z,97178.44
2023-05-10T11:10:27.366Z,97167.59
2023-05-10T11:15:28.648Z,97149.94
2023-05-10T11:20:34.351Z,97144.81
2023-05-10T11:25:35.639Z,97145.63
2023-05-10T11:30:36.920Z,97153.03
2023-05-10T11:35:38.188Z,97160.50
2023-05-10T11:40:39.507Z,97156.81
2023-05-10T11:45:41.012Z,97154.81
2023-05-10T11:50:42.253Z,97138.16
2023-05-10T11:55:43.467Z,97151.34
2023-05-10T12:00:44.700Z,97132.41
2023-05-10T12:05:46.001Z,97135.41
2023-05-10T12:10:47.331Z,97112.97
2023-05-10T12:15:48.569Z,97126.09
2023-05-10T12:20:49.850Z,97117.72
2023-05-10T12:25:52.416Z,97126.22
2023-05-10T12:30:53.854Z,97137.66
2023-05-10T12:35:55.173Z,97138.56
2023-05-10T12:40:56.447Z,97151.06
2023-05-10T12:45:58.006Z,97171.13
2023-05-10T12:50:59.276Z,97200.06
2023-05-10T12:56:00.646Z,97226.03
2023-05-10T13:01:01.915Z,97257.59
2023-05-10T13:06:03.274Z,97271.59
2023-05-10T13:11:04.601Z,97282.00
2023-05-10T13:16:05.958Z,97273.44
2023-05-10T13:21:08.465Z,97277.81
2023-05-10T13:26:09.687Z,97273.53
2023-05-10T13:31:11.350Z,97269.56
2023-05-10T13:36:12.600Z,97277.69
2023-05-10T13:41:13.853Z,97288.19
2023-05-10T13:46:15.127Z,97286.78
2023-05-10T13:51:16.421Z,97283.06
2023-05-10T13:56:17.689Z,97279.50
2023-05-10T14:01:18.963Z,97278.53
2023-05-10T14:06:20.285Z,97282.59
2023-05-10T14:11:23.930Z,97284.84
2023-05-10T14:16:26.180Z,97288.56
2023-05-10T14:21:27.600Z,97293.72
2023-05-10T14:26:28.888Z,97294.50
2023-05-10T14:31:31.464Z,97295.00
2023-05-10T14:36:33.150Z,97289.16
2023-05-10T14:41:34.457Z,97291.63
2023-05-10T14:46:36.078Z,97284.03
2023-05-10T14:51:37.881Z,97279.63
2023-05-10T14:56:39.332Z,97281.75
2023-05-10T15:01:42.812Z,97296.09
2023-05-10T15:06:44.732Z,97308.38
2023-05-10T15:11:46.046Z,97310.03
2023-05-10T15:16:47.803Z,97327.44
2023-05-10T15:21:49.069Z,97334.00
2023-05-10T15:26:50.432Z,97344.28
2023-05-10T15:31:52.350Z,97350.22
2023-05-10T15:36:53.813Z,97346.38
2023-05-10T15:41:55.036Z,97353.56
2023-05-10T15:46:56.832Z,97357.56
2023-05-10T15:51:58.151Z,97370.22
2023-05-10T15:57:00.165Z,97377.25
2023-05-10T16:02:01.469Z,97374.75
2023-05-10T16:07:02.736Z,97370.91
2023-05-10T16:12:04.423Z,97376.06
2023-05-10T16:17:10.342Z,97371.00
2023-05-10T16:22:11.622Z,97381.50
2023-05-10T16:27:13.322Z,97395.38
2023-05-10T16:32:14.583Z,97396.19
2023-05-10T16:37:15.993Z,97398.97
2023-05-10T16:42:17.552Z,97387.88
2023-05-10T16:47:18.830Z,97377.00
2023-05-10T16:52:20.084Z,97379.59
2023-05-10T16:57:21.342Z,97388.38
2023-05-10T17:02:22.766Z,97393.41
2023-05-10T17:07:26.183Z,97391.47
2023-05-10T17:12:27.638Z,97401.84
2023-05-10T17:17:28.959Z,97402.63
2023-05-10T17:22:30.418Z,97414.91
2023-05-10T17:27:31.714Z,97418.88
2023-05-10T17:32:32.997Z,97426.16
2023-05-10T17:37:34.291Z,97423.09
2023-05-10T17:42:35.504Z,97424.47
2023-05-10T17:47:36.814Z,97434.19
2023-05-10T17:52:38.068Z,97427.16
2023-05-10T17:57:39.330Z,97426.44
2023-05-10T18:02:40.600Z,97428.75
2023-05-10T18:07:41.971Z,97427.06
2023-05-10T18:12:43.720Z,97430.22
2023-05-10T18:17:45.207Z,97437.25
2023-05-10T18:22:46.553Z,97441.22
2023-05-10T18:27:48.296Z,97448.75
2023-05-10T18:32:49.657Z,97467.78
2023-05-10T18:37:51.026Z,97473.69
2023-05-10T18:42:52.243Z,97483.94
2023-05-10T18:47:53.563Z,97482.31
2023-05-10T18:52:56.627Z,97490.19
2023-05-10T18:57:57.881Z,97490.22
2023-05-10T19:02:59.186Z,97496.28
2023-05-10T19:08:00.497Z,97494.97
2023-05-10T19:13:01.717Z,97503.53
2023-05-10T19:18:03.049Z,97506.84
2023-05-10T19:28:10.253Z,97499.09
2023-05-10T19:33:12.634Z,97502.78
2023-05-10T19:38:14.041Z,97512.03
2023-05-10T19:43:15.389Z,97510.44
2023-05-10T19:48:16.713Z,97517.09
2023-05-10T19:53:18.054Z,97504.75
2023-05-10T19:58:19.667Z,97505.88
2023-05-10T20:03:21.029Z,97514.19
2023-05-10T20:08:22.459Z,97505.97
2023-05-10T20:13:23.974Z,97504.41
2023-05-10T20:18:25.327Z,97506.38
2023-05-10T20:23:26.739Z,97506.38
2023-05-10T20:28:28.911Z,97502.25
2023-05-10T20:33:30.173Z,97509.44
2023-05-10T20:38:31.402Z,97513.53
2023-05-10T20:43:32.756Z,97503.66
2023-05-10T20:48:34.264Z,97501.41
2023-05-10T20:53:35.547Z,97500.06
2023-05-10T20:58:36.841Z,97503.78
2023-05-10T21:03:38.207Z,97509.16
2023-05-10T21:08:39.432Z,97504.25
2023-05-10T21:13:40.698Z,97509.44
2023-05-10T21:18:41.960Z,97503.66
2023-05-10T21:23:43.215Z,97495.50
2023-05-10T21:28:44.569Z,97493.78
2023-05-10T21:33:47.090Z,97489.56
2023-05-10T21:38:50.353Z,97484.78
2023-05-10T21:43:51.652Z,97487.06
2023-05-10T21:48:52.901Z,97487.69
2023-05-10T21:53:54.298Z,97489.88
2023-05-10T21:58:55.649Z,97490.53
2023-05-10T22:03:56.945Z,97492.78
2023-05-10T22:08:58.212Z,97489.03
2023-05-10T22:13:59.580Z,97492.09
2023-05-10T22:19:01.163Z,97486.50
2023-05-10T22:24:02.522Z,97479.13
2023-05-10T22:29:03.971Z,97479.88
2023-05-10T22:34:05.794Z,97473.97
2023-05-10T22:39:07.045Z,97460.63
2023-05-10T22:44:08.665Z,97463.44
2023-05-10T22:49:10.098Z,97462.94
2023-05-10T22:54:11.330Z,97470.88
2023-05-10T22:59:12.618Z,97473.28
2023-05-10T23:04:13.878Z,97474.13
2023-05-10T23:09:16.456Z,97470.19
2023-05-10T23:14:18.012Z,97470.19
2023-05-10T23:19:19.295Z,97465.97
2023-05-10T23:24:20.639Z,97472.06
2023-05-10T23:29:23.804Z,97470.28
2023-05-10T23:34:25.040Z,97466.97
2023-05-10T23:39:26.297Z,97463.06
2023-05-10T23:44:27.589Z,97465.84
2023-05-10T23:49:29.420Z,97464.41
2023-05-10T23:54:30.671Z,97465.13
2023-05-10T23:59:31.889Z,97458.56
